Meteo Giornale » Osservazioni meteo Stati Uniti (USA) » Topeka Philip Billard
ore: 00:53 - Osservazioni Meteo Topeka Philip Billard
Lat. 39° 4' N Lon. 95° 37' W Alt. 268 metri s.l.m.
27 °C
Sereno
Temp. 24 Ore
25 °C
38 °C
Sud/Sud-Ovest
7.4 Km/h
Dew point 17 °C
Umidità 54 %
Visibilità 10 Km
Il sole sorge alle ore 06:51
Il sole tramonta alle ore 19:53
| Data e Ora | Cielo e Fenomeni | T °C | DP °C | Um. % | Pres. hPa | Vis. km | Vento km/h | |
|---|---|---|---|---|---|---|---|---|
| Oggi h: 00:53 | Sereno | 27 | 17 | 54 | 1014 | 10 | S/SO 7.4 | |
| Ieri h: 23:53 | Sereno | 28 | 17 | 51 | 1014 | 10 | S 11.1 | |
| Ieri h: 22:53 | Sereno | 30 | 17 | 45 | 1014 | 10 | S 11.1 | |
| Ieri h: 21:53 | Sereno | 31 | 17 | 43 | 1013 | 10 | S/SE 13 | |
| Ieri h: 20:53 | Sereno | 28 | 20 | 61 | 1013 | 14 | E/SE 7.4 | |
| Ieri h: 19:53 | Sereno | 31 | 20 | 52 | 1012 | 10 | SE 9.3 | |
| Ieri h: 18:53 | Sereno | 36 | 18 | 34 | 1012 | 10 | S 13 | |
| Ieri h: 17:53 | Sereno | 38 | 18 | 31 | 1012 | 10 | S/SO 14.8 | |
| Ieri h: 16:53 | Sereno | 38 | 19 | 33 | 1012 | 10 | S 18.5 | |
| Ieri h: 15:53 | Sereno | 38 | 19 | 33 | 1013 | 10 | S/SO 11.1 | |
| Ieri h: 14:53 | Sereno | 37 | 19 | 35 | 1013 | 10 | O/SO 16.7 | |
| Ieri h: 13:53 | Sereno | 36 | 18 | 34 | 1014 | 10 | SO 13 | |
| Ieri h: 12:53 | Sereno | 36 | 19 | 36 | 1014 | 10 | S/SO 14.8 | |
| Ieri h: 11:53 | Sereno | 34 | 19 | 41 | 1014 | 10 | SO 16.7 | |
| Ieri h: 10:53 | Sereno | 32 | 19 | 46 | 1014 | 13 | SO 16.7 | |
| Ieri h: 09:53 | Sereno | 29 | 18 | 51 | 1015 | 10 | S/SO 11.1 | |
| Ieri h: 08:53 | Sereno | 28 | 18 | 54 | 1015 | 10 | S/SO 14.8 | |
| Ieri h: 07:53 | Poco Nuvoloso | 25 | 17 | 61 | 1014 | 10 | S 14.8 | |
| Ieri h: 06:53 | Sereno | 25 | 17 | 61 | 1014 | 10 | S 11.1 | |
| Ieri h: 05:53 | Sereno | 26 | 17 | 57 | 1013 | 10 | S/SE 13 | |
| Ieri h: 04:53 | Sereno | 27 | 17 | 54 | 1013 | 10 | S 7.4 | |
| Ieri h: 03:53 | Sereno | 28 | 17 | 51 | 1012 | 10 | S 13 | |
| Ieri h: 02:53 | Sereno | 28 | 17 | 51 | 1011 | 10 | S 11.1 | |



